sensor_id;sensor_type;location;lat;lon;timestamp;temperature;humidity
40868;DHT22;26586;50.708;22.412;2023-08-30T00:00:58;25.90;65.80
40868;DHT22;26586;50.708;22.412;2023-08-30T00:03:34;25.90;65.80
40868;DHT22;26586;50.708;22.412;2023-08-30T00:06:04;25.90;65.90
40868;DHT22;26586;50.708;22.412;2023-08-30T00:08:34;25.90;66.00
40868;DHT22;26586;50.708;22.412;2023-08-30T00:11:00;25.80;66.00
40868;DHT22;26586;50.708;22.412;2023-08-30T00:13:30;25.90;66.00
40868;DHT22;26586;50.708;22.412;2023-08-30T00:15:57;25.80;66.10
40868;DHT22;26586;50.708;22.412;2023-08-30T00:18:23;25.80;66.10
40868;DHT22;26586;50.708;22.412;2023-08-30T00:20:49;25.80;66.10
40868;DHT22;26586;50.708;22.412;2023-08-30T00:23:16;25.80;66.10
40868;DHT22;26586;50.708;22.412;2023-08-30T00:25:42;25.80;66.10
40868;DHT22;26586;50.708;22.412;2023-08-30T00:28:09;25.80;66.30
40868;DHT22;26586;50.708;22.412;2023-08-30T00:30:35;25.80;66.40
40868;DHT22;26586;50.708;22.412;2023-08-30T00:33:01;25.80;66.50
40868;DHT22;26586;50.708;22.412;2023-08-30T00:35:27;25.80;66.50
40868;DHT22;26586;50.708;22.412;2023-08-30T00:37:53;25.80;66.60
40868;DHT22;26586;50.708;22.412;2023-08-30T00:40:23;25.70;66.40
40868;DHT22;26586;50.708;22.412;2023-08-30T00:42:50;25.70;66.50
40868;DHT22;26586;50.708;22.412;2023-08-30T00:45:16;25.70;66.50
40868;DHT22;26586;50.708;22.412;2023-08-30T00:47:43;25.70;66.50
40868;DHT22;26586;50.708;22.412;2023-08-30T00:50:09;25.70;66.60
40868;DHT22;26586;50.708;22.412;2023-08-30T00:52:35;25.70;66.60
40868;DHT22;26586;50.708;22.412;2023-08-30T00:55:02;25.70;66.70
40868;DHT22;26586;50.708;22.412;2023-08-30T00:57:28;25.70;66.70
40868;DHT22;26586;50.708;22.412;2023-08-30T00:59:55;25.70;67.00
40868;DHT22;26586;50.708;22.412;2023-08-30T01:02:22;25.70;67.00
40868;DHT22;26586;50.708;22.412;2023-08-30T01:04:49;25.70;67.00
40868;DHT22;26586;50.708;22.412;2023-08-30T01:07:16;25.70;67.00
40868;DHT22;26586;50.708;22.412;2023-08-30T01:09:42;25.70;67.00
40868;DHT22;26586;50.708;22.412;2023-08-30T01:12:22;25.60;66.90
40868;DHT22;26586;50.708;22.412;2023-08-30T01:14:59;25.70;67.20
40868;DHT22;26586;50.708;22.412;2023-08-30T01:17:28;25.70;67.30
40868;DHT22;26586;50.708;22.412;2023-08-30T01:20:07;25.60;67.30
40868;DHT22;26586;50.708;22.412;2023-08-30T01:27:55;25.60;67.90
40868;DHT22;26586;50.708;22.412;2023-08-30T01:30:24;25.60;68.10
40868;DHT22;26586;50.708;22.412;2023-08-30T01:32:53;25.70;68.00
40868;DHT22;26586;50.708;22.412;2023-08-30T01:35:22;25.60;67.90
40868;DHT22;26586;50.708;22.412;2023-08-30T01:37:49;25.60;68.00
40868;DHT22;26586;50.708;22.412;2023-08-30T01:40:16;25.60;68.10
40868;DHT22;26586;50.708;22.412;2023-08-30T01:42:44;25.60;68.10
40868;DHT22;26586;50.708;22.412;2023-08-30T01:45:13;25.60;68.00
40868;DHT22;26586;50.708;22.412;2023-08-30T01:47:42;25.50;67.90
40868;DHT22;26586;50.708;22.412;2023-08-30T01:50:09;25.60;67.90
40868;DHT22;26586;50.708;22.412;2023-08-30T01:52:36;25.50;67.90
40868;DHT22;26586;50.708;22.412;2023-08-30T01:55:03;25.50;67.90
40868;DHT22;26586;50.708;22.412;2023-08-30T01:57:30;25.50;67.90
40868;DHT22;26586;50.708;22.412;2023-08-30T01:59:56;25.50;67.80
40868;DHT22;26586;50.708;22.412;2023-08-30T02:02:23;25.50;67.80
40868;DHT22;26586;50.708;22.412;2023-08-30T02:04:49;25.50;67.70
40868;DHT22;26586;50.708;22.412;2023-08-30T02:07:25;25.50;67.70
40868;DHT22;26586;50.708;22.412;2023-08-30T02:10:01;25.50;67.90
40868;DHT22;26586;50.708;22.412;2023-08-30T02:12:48;25.40;68.30
40868;DHT22;26586;50.708;22.412;2023-08-30T02:15:16;25.50;67.50
40868;DHT22;26586;50.708;22.412;2023-08-30T02:17:43;25.40;67.50
40868;DHT22;26586;50.708;22.412;2023-08-30T02:20:10;25.40;67.40
40868;DHT22;26586;50.708;22.412;2023-08-30T02:22:36;25.40;67.40
40868;DHT22;26586;50.708;22.412;2023-08-30T02:25:03;25.40;67.50
40868;DHT22;26586;50.708;22.412;2023-08-30T02:27:33;25.40;67.70
40868;DHT22;26586;50.708;22.412;2023-08-30T02:30:00;25.40;67.80
40868;DHT22;26586;50.708;22.412;2023-08-30T02:32:27;25.40;67.70
40868;DHT22;26586;50.708;22.412;2023-08-30T02:34:53;25.40;67.80
40868;DHT22;26586;50.708;22.412;2023-08-30T02:37:19;25.40;67.80
40868;DHT22;26586;50.708;22.412;2023-08-30T02:39:46;25.40;67.90
40868;DHT22;26586;50.708;22.412;2023-08-30T02:42:12;25.40;67.90
40868;DHT22;26586;50.708;22.412;2023-08-30T02:44:38;25.40;67.70
40868;DHT22;26586;50.708;22.412;2023-08-30T02:47:04;25.40;67.70
40868;DHT22;26586;50.708;22.412;2023-08-30T02:49:30;25.40;67.80
40868;DHT22;26586;50.708;22.412;2023-08-30T02:51:57;25.40;67.90
40868;DHT22;26586;50.708;22.412;2023-08-30T02:54:23;25.40;67.80
40868;DHT22;26586;50.708;22.412;2023-08-30T02:56:49;25.40;67.90
40868;DHT22;26586;50.708;22.412;2023-08-30T02:59:15;25.30;67.90
40868;DHT22;26586;50.708;22.412;2023-08-30T03:01:42;25.30;67.90
40868;DHT22;26586;50.708;22.412;2023-08-30T03:04:08;25.40;67.90
40868;DHT22;26586;50.708;22.412;2023-08-30T03:06:35;25.40;67.90
40868;DHT22;26586;50.708;22.412;2023-08-30T03:09:02;25.40;68.00
40868;DHT22;26586;50.708;22.412;2023-08-30T03:11:29;25.30;67.90
40868;DHT22;26586;50.708;22.412;2023-08-30T03:13:55;25.30;68.00
40868;DHT22;26586;50.708;22.412;2023-08-30T03:16:21;25.40;68.00
40868;DHT22;26586;50.708;22.412;2023-08-30T03:18:48;25.30;68.00
40868;DHT22;26586;50.708;22.412;2023-08-30T03:21:14;25.30;68.00
40868;DHT22;26586;50.708;22.412;2023-08-30T03:23:41;25.30;68.10
40868;DHT22;26586;50.708;22.412;2023-08-30T03:26:10;25.30;67.80
40868;DHT22;26586;50.708;22.412;2023-08-30T03:28:37;25.30;68.30
40868;DHT22;26586;50.708;22.412;2023-08-30T03:31:20;25.30;68.80
40868;DHT22;26586;50.708;22.412;2023-08-30T03:33:48;25.30;67.50
40868;DHT22;26586;50.708;22.412;2023-08-30T03:36:16;25.30;67.40
40868;DHT22;26586;50.708;22.412;2023-08-30T03:38:43;25.40;67.80
40868;DHT22;26586;50.708;22.412;2023-08-30T03:41:13;25.30;67.70
40868;DHT22;26586;50.708;22.412;2023-08-30T03:43:40;25.30;67.40
40868;DHT22;26586;50.708;22.412;2023-08-30T03:46:06;25.30;67.30
40868;DHT22;26586;50.708;22.412;2023-08-30T03:48:32;25.30;67.40
40868;DHT22;26586;50.708;22.412;2023-08-30T03:50:59;25.30;67.00
40868;DHT22;26586;50.708;22.412;2023-08-30T03:53:25;25.30;66.90
40868;DHT22;26586;50.708;22.412;2023-08-30T03:55:51;25.30;66.70
40868;DHT22;26586;50.708;22.412;2023-08-30T03:58:18;25.30;66.90
40868;DHT22;26586;50.708;22.412;2023-08-30T04:00:46;25.30;66.60
40868;DHT22;26586;50.708;22.412;2023-08-30T04:03:14;25.30;67.00
40868;DHT22;26586;50.708;22.412;2023-08-30T04:05:41;25.30;66.70
40868;DHT22;26586;50.708;22.412;2023-08-30T04:08:08;25.30;66.70
40868;DHT22;26586;50.708;22.412;2023-08-30T04:10:39;25.30;66.80
40868;DHT22;26586;50.708;22.412;2023-08-30T04:13:06;25.20;66.80
40868;DHT22;26586;50.708;22.412;2023-08-30T04:15:34;25.30;66.70
40868;DHT22;26586;50.708;22.412;2023-08-30T04:18:01;25.30;66.80
40868;DHT22;26586;50.708;22.412;2023-08-30T04:20:28;25.20;66.70
40868;DHT22;26586;50.708;22.412;2023-08-30T04:22:54;25.20;66.60
40868;DHT22;26586;50.708;22.412;2023-08-30T04:25:23;25.20;66.90
40868;DHT22;26586;50.708;22.412;2023-08-30T04:27:49;25.20;67.00
40868;DHT22;26586;50.708;22.412;2023-08-30T04:30:16;25.20;66.80
40868;DHT22;26586;50.708;22.412;2023-08-30T04:32:42;25.20;66.60
40868;DHT22;26586;50.708;22.412;2023-08-30T04:35:09;25.20;67.00
40868;DHT22;26586;50.708;22.412;2023-08-30T04:37:35;25.20;66.40
40868;DHT22;26586;50.708;22.412;2023-08-30T04:40:01;25.20;66.30
40868;DHT22;26586;50.708;22.412;2023-08-30T04:42:29;25.20;66.20
40868;DHT22;26586;50.708;22.412;2023-08-30T04:44:55;25.20;66.10
40868;DHT22;26586;50.708;22.412;2023-08-30T04:47:22;25.20;66.30
40868;DHT22;26586;50.708;22.412;2023-08-30T04:49:51;25.20;66.20
40868;DHT22;26586;50.708;22.412;2023-08-30T04:52:17;25.20;66.30
40868;DHT22;26586;50.708;22.412;2023-08-30T04:54:44;25.20;66.50
40868;DHT22;26586;50.708;22.412;2023-08-30T04:57:14;25.20;66.60
40868;DHT22;26586;50.708;22.412;2023-08-30T04:59:42;25.20;66.90
40868;DHT22;26586;50.708;22.412;2023-08-30T05:02:09;25.20;66.80
40868;DHT22;26586;50.708;22.412;2023-08-30T05:04:36;25.20;67.00
40868;DHT22;26586;50.708;22.412;2023-08-30T05:07:02;25.20;67.10
40868;DHT22;26586;50.708;22.412;2023-08-30T05:09:30;25.20;67.00
40868;DHT22;26586;50.708;22.412;2023-08-30T05:11:56;25.20;67.30
40868;DHT22;26586;50.708;22.412;2023-08-30T05:14:22;25.20;67.30
40868;DHT22;26586;50.708;22.412;2023-08-30T05:16:49;25.20;67.30
40868;DHT22;26586;50.708;22.412;2023-08-30T05:19:16;25.20;67.30
40868;DHT22;26586;50.708;22.412;2023-08-30T05:21:43;25.20;67.30
40868;DHT22;26586;50.708;22.412;2023-08-30T05:24:09;25.20;67.30
40868;DHT22;26586;50.708;22.412;2023-08-30T05:26:36;25.20;67.30
40868;DHT22;26586;50.708;22.412;2023-08-30T05:29:03;25.20;67.40
40868;DHT22;26586;50.708;22.412;2023-08-30T05:31:29;25.20;67.30
40868;DHT22;26586;50.708;22.412;2023-08-30T05:33:55;25.20;67.60
40868;DHT22;26586;50.708;22.412;2023-08-30T05:36:21;25.20;67.50
40868;DHT22;26586;50.708;22.412;2023-08-30T05:38:48;25.20;67.50
40868;DHT22;26586;50.708;22.412;2023-08-30T05:41:14;25.20;67.80
40868;DHT22;26586;50.708;22.412;2023-08-30T05:43:40;25.30;67.60
40868;DHT22;26586;50.708;22.412;2023-08-30T05:46:06;25.30;67.60
40868;DHT22;26586;50.708;22.412;2023-08-30T05:48:38;25.30;67.90
40868;DHT22;26586;50.708;22.412;2023-08-30T05:51:04;25.30;68.00
40868;DHT22;26586;50.708;22.412;2023-08-30T05:53:30;25.30;67.90
40868;DHT22;26586;50.708;22.412;2023-08-30T05:55:56;25.30;67.80
40868;DHT22;26586;50.708;22.412;2023-08-30T05:58:23;25.30;67.80
40868;DHT22;26586;50.708;22.412;2023-08-30T06:00:49;25.30;67.70
40868;DHT22;26586;50.708;22.412;2023-08-30T06:03:15;25.30;67.60
40868;DHT22;26586;50.708;22.412;2023-08-30T06:05:42;25.30;67.70
40868;DHT22;26586;50.708;22.412;2023-08-30T06:08:09;25.30;67.60
40868;DHT22;26586;50.708;22.412;2023-08-30T06:10:36;25.30;67.60
40868;DHT22;26586;50.708;22.412;2023-08-30T06:13:03;25.30;67.60
40868;DHT22;26586;50.708;22.412;2023-08-30T06:15:29;25.30;67.60
40868;DHT22;26586;50.708;22.412;2023-08-30T06:17:56;25.30;67.80
40868;DHT22;26586;50.708;22.412;2023-08-30T06:20:22;25.30;67.90
40868;DHT22;26586;50.708;22.412;2023-08-30T06:22:48;25.30;68.00
40868;DHT22;26586;50.708;22.412;2023-08-30T06:25:14;25.30;68.20
40868;DHT22;26586;50.708;22.412;2023-08-30T06:27:42;25.30;68.20
40868;DHT22;26586;50.708;22.412;2023-08-30T06:30:12;25.30;68.30
40868;DHT22;26586;50.708;22.412;2023-08-30T06:32:39;25.30;68.40
40868;DHT22;26586;50.708;22.412;2023-08-30T06:35:05;25.30;68.20
40868;DHT22;26586;50.708;22.412;2023-08-30T06:37:31;25.30;68.20
40868;DHT22;26586;50.708;22.412;2023-08-30T06:39:57;25.30;68.30
40868;DHT22;26586;50.708;22.412;2023-08-30T06:42:24;25.30;68.40
40868;DHT22;26586;50.708;22.412;2023-08-30T06:44:50;25.30;68.60
40868;DHT22;26586;50.708;22.412;2023-08-30T06:47:17;25.30;68.50
40868;DHT22;26586;50.708;22.412;2023-08-30T06:49:43;25.40;68.50
40868;DHT22;26586;50.708;22.412;2023-08-30T06:52:09;25.30;68.20
40868;DHT22;26586;50.708;22.412;2023-08-30T06:54:35;25.30;68.40
40868;DHT22;26586;50.708;22.412;2023-08-30T06:57:02;25.40;68.50
40868;DHT22;26586;50.708;22.412;2023-08-30T06:59:28;25.40;68.50
40868;DHT22;26586;50.708;22.412;2023-08-30T07:01:55;25.40;68.40
40868;DHT22;26586;50.708;22.412;2023-08-30T07:04:21;25.40;68.60
40868;DHT22;26586;50.708;22.412;2023-08-30T07:06:47;25.30;69.10
40868;DHT22;26586;50.708;22.412;2023-08-30T07:09:13;25.40;68.50
40868;DHT22;26586;50.708;22.412;2023-08-30T07:11:42;25.40;68.60
40868;DHT22;26586;50.708;22.412;2023-08-30T07:14:12;25.40;69.20
40868;DHT22;26586;50.708;22.412;2023-08-30T07:16:41;25.40;68.60
40868;DHT22;26586;50.708;22.412;2023-08-30T07:19:07;25.40;68.70
40868;DHT22;26586;50.708;22.412;2023-08-30T07:21:33;25.40;68.70
40868;DHT22;26586;50.708;22.412;2023-08-30T07:24:05;25.40;68.70
40868;DHT22;26586;50.708;22.412;2023-08-30T07:26:32;25.40;68.70
40868;DHT22;26586;50.708;22.412;2023-08-30T07:28:58;25.40;68.60
40868;DHT22;26586;50.708;22.412;2023-08-30T07:31:24;25.40;68.50
40868;DHT22;26586;50.708;22.412;2023-08-30T07:33:50;25.40;68.70
40868;DHT22;26586;50.708;22.412;2023-08-30T07:36:16;25.40;68.70
40868;DHT22;26586;50.708;22.412;2023-08-30T07:38:42;25.40;68.50
40868;DHT22;26586;50.708;22.412;2023-08-30T07:41:09;25.40;69.20
40868;DHT22;26586;50.708;22.412;2023-08-30T07:43:35;25.40;68.50
40868;DHT22;26586;50.708;22.412;2023-08-30T07:46:02;25.40;68.60
40868;DHT22;26586;50.708;22.412;2023-08-30T07:48:28;25.40;68.60
40868;DHT22;26586;50.708;22.412;2023-08-30T07:50:54;25.40;68.70
40868;DHT22;26586;50.708;22.412;2023-08-30T07:53:20;25.50;68.80
40868;DHT22;26586;50.708;22.412;2023-08-30T07:55:50;25.40;68.70
40868;DHT22;26586;50.708;22.412;2023-08-30T07:58:17;25.50;68.80
40868;DHT22;26586;50.708;22.412;2023-08-30T08:00:44;25.50;68.80
40868;DHT22;26586;50.708;22.412;2023-08-30T08:03:10;25.50;68.90
40868;DHT22;26586;50.708;22.412;2023-08-30T08:05:37;25.50;69.10
40868;DHT22;26586;50.708;22.412;2023-08-30T08:08:03;25.50;68.90
40868;DHT22;26586;50.708;22.412;2023-08-30T08:10:33;25.50;68.90
40868;DHT22;26586;50.708;22.412;2023-08-30T08:13:00;25.50;69.00
40868;DHT22;26586;50.708;22.412;2023-08-30T08:15:27;25.50;69.10
40868;DHT22;26586;50.708;22.412;2023-08-30T08:17:54;25.50;69.10
40868;DHT22;26586;50.708;22.412;2023-08-30T08:20:21;25.50;69.20
40868;DHT22;26586;50.708;22.412;2023-08-30T08:22:47;25.50;69.20
40868;DHT22;26586;50.708;22.412;2023-08-30T08:25:14;25.50;69.40
40868;DHT22;26586;50.708;22.412;2023-08-30T08:27:42;25.50;70.10
40868;DHT22;26586;50.708;22.412;2023-08-30T08:30:08;25.50;69.60
40868;DHT22;26586;50.708;22.412;2023-08-30T08:32:36;25.50;69.80
40868;DHT22;26586;50.708;22.412;2023-08-30T08:35:02;25.60;70.00
40868;DHT22;26586;50.708;22.412;2023-08-30T08:37:28;25.60;69.80
40868;DHT22;26586;50.708;22.412;2023-08-30T08:39:55;25.60;69.90
40868;DHT22;26586;50.708;22.412;2023-08-30T08:42:21;25.60;70.00
40868;DHT22;26586;50.708;22.412;2023-08-30T08:44:51;25.60;70.10
40868;DHT22;26586;50.708;22.412;2023-08-30T08:47:25;25.70;70.20
40868;DHT22;26586;50.708;22.412;2023-08-30T08:50:03;25.70;70.00
40868;DHT22;26586;50.708;22.412;2023-08-30T08:52:32;25.70;70.10
40868;DHT22;26586;50.708;22.412;2023-08-30T08:54:59;25.70;70.00
40868;DHT22;26586;50.708;22.412;2023-08-30T08:57:26;25.70;69.90
40868;DHT22;26586;50.708;22.412;2023-08-30T08:59:57;25.80;69.60
40868;DHT22;26586;50.708;22.412;2023-08-30T09:02:26;25.80;69.30
40868;DHT22;26586;50.708;22.412;2023-08-30T09:04:58;25.90;69.00
40868;DHT22;26586;50.708;22.412;2023-08-30T09:07:30;25.90;68.80
40868;DHT22;26586;50.708;22.412;2023-08-30T09:10:00;25.90;68.40
40868;DHT22;26586;50.708;22.412;2023-08-30T09:12:26;25.90;68.10
40868;DHT22;26586;50.708;22.412;2023-08-30T09:14:57;25.90;68.20
40868;DHT22;26586;50.708;22.412;2023-08-30T09:17:38;26.00;68.30
40868;DHT22;26586;50.708;22.412;2023-08-30T09:20:14;26.00;67.90
40868;DHT22;26586;50.708;22.412;2023-08-30T09:22:41;26.00;67.90
40868;DHT22;26586;50.708;22.412;2023-08-30T09:25:23;26.00;67.50
40868;DHT22;26586;50.708;22.412;2023-08-30T09:28:01;26.10;67.30
40868;DHT22;26586;50.708;22.412;2023-08-30T09:30:28;26.10;67.20
40868;DHT22;26586;50.708;22.412;2023-08-30T09:33:01;26.10;66.80
40868;DHT22;26586;50.708;22.412;2023-08-30T09:35:31;26.10;66.50
40868;DHT22;26586;50.708;22.412;2023-08-30T09:37:58;26.20;66.30
40868;DHT22;26586;50.708;22.412;2023-08-30T09:40:24;26.20;66.10
40868;DHT22;26586;50.708;22.412;2023-08-30T09:42:53;26.30;66.10
40868;DHT22;26586;50.708;22.412;2023-08-30T09:45:23;26.30;65.90
40868;DHT22;26586;50.708;22.412;2023-08-30T09:47:49;26.30;65.80
40868;DHT22;26586;50.708;22.412;2023-08-30T09:50:19;26.30;65.60
40868;DHT22;26586;50.708;22.412;2023-08-30T09:52:52;26.30;65.60
40868;DHT22;26586;50.708;22.412;2023-08-30T09:55:19;26.40;65.30
40868;DHT22;26586;50.708;22.412;2023-08-30T09:57:47;26.40;65.10
40868;DHT22;26586;50.708;22.412;2023-08-30T10:00:15;26.40;64.90
40868;DHT22;26586;50.708;22.412;2023-08-30T10:02:43;26.40;64.90
40868;DHT22;26586;50.708;22.412;2023-08-30T10:05:10;26.50;64.70
40868;DHT22;26586;50.708;22.412;2023-08-30T10:07:41;26.50;64.80
40868;DHT22;26586;50.708;22.412;2023-08-30T10:10:10;26.50;64.70
40868;DHT22;26586;50.708;22.412;2023-08-30T10:12:37;26.50;64.70
40868;DHT22;26586;50.708;22.412;2023-08-30T10:15:05;26.50;64.50
40868;DHT22;26586;50.708;22.412;2023-08-30T10:17:32;26.50;64.30
40868;DHT22;26586;50.708;22.412;2023-08-30T10:20:04;26.50;64.20
40868;DHT22;26586;50.708;22.412;2023-08-30T10:22:37;26.50;64.20
40868;DHT22;26586;50.708;22.412;2023-08-30T10:25:17;26.50;64.20
40868;DHT22;26586;50.708;22.412;2023-08-30T10:27:47;26.50;64.00
40868;DHT22;26586;50.708;22.412;2023-08-30T10:30:16;26.60;64.00
40868;DHT22;26586;50.708;22.412;2023-08-30T10:32:44;26.60;64.00
40868;DHT22;26586;50.708;22.412;2023-08-30T10:35:17;26.60;64.00
40868;DHT22;26586;50.708;22.412;2023-08-30T10:37:59;26.60;64.00
40868;DHT22;26586;50.708;22.412;2023-08-30T10:40:26;26.60;64.10
40868;DHT22;26586;50.708;22.412;2023-08-30T10:43:03;26.60;64.00
40868;DHT22;26586;50.708;22.412;2023-08-30T10:45:30;26.60;64.00
40868;DHT22;26586;50.708;22.412;2023-08-30T10:47:57;26.60;63.90
40868;DHT22;26586;50.708;22.412;2023-08-30T10:50:31;26.60;63.80
40868;DHT22;26586;50.708;22.412;2023-08-30T10:52:58;26.70;63.70
40868;DHT22;26586;50.708;22.412;2023-08-30T10:55:24;26.60;63.80
40868;DHT22;26586;50.708;22.412;2023-08-30T10:58:01;26.70;63.50
40868;DHT22;26586;50.708;22.412;2023-08-30T11:00:30;26.70;63.50
40868;DHT22;26586;50.708;22.412;2023-08-30T11:02:57;26.70;63.30
40868;DHT22;26586;50.708;22.412;2023-08-30T11:05:26;26.70;63.20
40868;DHT22;26586;50.708;22.412;2023-08-30T11:07:53;26.70;63.20
40868;DHT22;26586;50.708;22.412;2023-08-30T11:10:21;26.80;63.20
40868;DHT22;26586;50.708;22.412;2023-08-30T11:12:48;26.80;63.20
40868;DHT22;26586;50.708;22.412;2023-08-30T11:15:18;26.80;63.10
40868;DHT22;26586;50.708;22.412;2023-08-30T11:17:44;26.80;63.10
40868;DHT22;26586;50.708;22.412;2023-08-30T11:20:15;26.80;63.10
40868;DHT22;26586;50.708;22.412;2023-08-30T11:22:47;26.80;63.10
40868;DHT22;26586;50.708;22.412;2023-08-30T11:25:14;26.80;63.10
40868;DHT22;26586;50.708;22.412;2023-08-30T11:27:42;26.80;63.10
40868;DHT22;26586;50.708;22.412;2023-08-30T11:30:10;26.80;63.10
40868;DHT22;26586;50.708;22.412;2023-08-30T11:32:38;26.80;63.10
40868;DHT22;26586;50.708;22.412;2023-08-30T11:35:06;26.80;63.00
40868;DHT22;26586;50.708;22.412;2023-08-30T11:37:32;26.80;62.90
40868;DHT22;26586;50.708;22.412;2023-08-30T11:39:59;26.80;62.90
40868;DHT22;26586;50.708;22.412;2023-08-30T11:42:26;26.80;62.90
40868;DHT22;26586;50.708;22.412;2023-08-30T11:44:52;26.80;62.80
40868;DHT22;26586;50.708;22.412;2023-08-30T11:47:22;26.90;62.90
40868;DHT22;26586;50.708;22.412;2023-08-30T11:49:49;26.90;62.90
40868;DHT22;26586;50.708;22.412;2023-08-30T11:52:17;26.80;62.80
40868;DHT22;26586;50.708;22.412;2023-08-30T11:54:44;26.90;62.80
40868;DHT22;26586;50.708;22.412;2023-08-30T11:57:12;26.90;62.70
40868;DHT22;26586;50.708;22.412;2023-08-30T11:59:38;26.90;62.80
40868;DHT22;26586;50.708;22.412;2023-08-30T12:02:06;26.90;62.80
40868;DHT22;26586;50.708;22.412;2023-08-30T12:04:40;26.90;62.70
40868;DHT22;26586;50.708;22.412;2023-08-30T12:07:10;26.90;62.70
40868;DHT22;26586;50.708;22.412;2023-08-30T12:09:37;26.90;62.70
40868;DHT22;26586;50.708;22.412;2023-08-30T12:12:10;26.90;62.70
40868;DHT22;26586;50.708;22.412;2023-08-30T12:14:43;27.00;62.80
40868;DHT22;26586;50.708;22.412;2023-08-30T12:17:12;27.00;62.70
40868;DHT22;26586;50.708;22.412;2023-08-30T12:19:38;27.00;62.70
40868;DHT22;26586;50.708;22.412;2023-08-30T12:22:06;27.00;62.60
40868;DHT22;26586;50.708;22.412;2023-08-30T12:24:41;27.00;62.50
40868;DHT22;26586;50.708;22.412;2023-08-30T12:27:07;27.00;62.50
40868;DHT22;26586;50.708;22.412;2023-08-30T12:29:33;27.10;62.50
40868;DHT22;26586;50.708;22.412;2023-08-30T12:31:59;27.00;62.40
40868;DHT22;26586;50.708;22.412;2023-08-30T12:34:26;27.10;62.40
40868;DHT22;26586;50.708;22.412;2023-08-30T12:36:54;27.10;62.40
40868;DHT22;26586;50.708;22.412;2023-08-30T12:39:21;27.10;62.40
40868;DHT22;26586;50.708;22.412;2023-08-30T12:41:47;27.10;62.30
40868;DHT22;26586;50.708;22.412;2023-08-30T12:44:13;27.10;62.30
40868;DHT22;26586;50.708;22.412;2023-08-30T12:46:40;27.20;62.30
40868;DHT22;26586;50.708;22.412;2023-08-30T12:49:08;27.20;62.20
40868;DHT22;26586;50.708;22.412;2023-08-30T12:51:34;27.20;62.20
40868;DHT22;26586;50.708;22.412;2023-08-30T12:54:00;27.20;62.10
40868;DHT22;26586;50.708;22.412;2023-08-30T12:56:27;27.20;62.00
40868;DHT22;26586;50.708;22.412;2023-08-30T12:58:53;27.20;62.00
40868;DHT22;26586;50.708;22.412;2023-08-30T13:01:20;27.30;62.00
40868;DHT22;26586;50.708;22.412;2023-08-30T13:03:46;27.20;61.80
40868;DHT22;26586;50.708;22.412;2023-08-30T13:06:12;27.30;61.80
40868;DHT22;26586;50.708;22.412;2023-08-30T13:08:38;27.30;61.70
40868;DHT22;26586;50.708;22.412;2023-08-30T13:11:04;27.30;61.50
40868;DHT22;26586;50.708;22.412;2023-08-30T13:13:31;27.30;62.10
40868;DHT22;26586;50.708;22.412;2023-08-30T13:15:57;27.30;61.40
40868;DHT22;26586;50.708;22.412;2023-08-30T13:18:23;27.40;61.30
40868;DHT22;26586;50.708;22.412;2023-08-30T13:20:50;27.40;61.40
40868;DHT22;26586;50.708;22.412;2023-08-30T13:23:19;27.40;61.30
40868;DHT22;26586;50.708;22.412;2023-08-30T13:25:51;27.40;61.20
40868;DHT22;26586;50.708;22.412;2023-08-30T13:28:18;27.40;61.20
40868;DHT22;26586;50.708;22.412;2023-08-30T13:30:45;27.40;61.20
40868;DHT22;26586;50.708;22.412;2023-08-30T13:33:11;27.40;61.20
40868;DHT22;26586;50.708;22.412;2023-08-30T13:35:40;27.40;61.20
40868;DHT22;26586;50.708;22.412;2023-08-30T13:38:10;27.40;61.20
40868;DHT22;26586;50.708;22.412;2023-08-30T13:40:39;27.40;61.20
40868;DHT22;26586;50.708;22.412;2023-08-30T13:43:06;27.50;61.30
40868;DHT22;26586;50.708;22.412;2023-08-30T13:45:35;27.50;61.20
40868;DHT22;26586;50.708;22.412;2023-08-30T13:48:02;27.50;61.70
40868;DHT22;26586;50.708;22.412;2023-08-30T13:50:29;27.50;61.10
40868;DHT22;26586;50.708;22.412;2023-08-30T13:52:58;27.50;61.00
40868;DHT22;26586;50.708;22.412;2023-08-30T13:55:24;27.50;61.10
40868;DHT22;26586;50.708;22.412;2023-08-30T13:57:51;27.50;61.10
40868;DHT22;26586;50.708;22.412;2023-08-30T14:00:17;27.50;61.20
40868;DHT22;26586;50.708;22.412;2023-08-30T14:02:44;27.50;61.20
40868;DHT22;26586;50.708;22.412;2023-08-30T14:05:10;27.50;61.20
40868;DHT22;26586;50.708;22.412;2023-08-30T14:07:36;27.50;61.20
40868;DHT22;26586;50.708;22.412;2023-08-30T14:10:02;27.50;61.20
40868;DHT22;26586;50.708;22.412;2023-08-30T14:12:29;27.50;61.20
40868;DHT22;26586;50.708;22.412;2023-08-30T14:14:55;27.50;61.20
40868;DHT22;26586;50.708;22.412;2023-08-30T14:17:21;27.60;61.30
40868;DHT22;26586;50.708;22.412;2023-08-30T14:19:48;27.50;61.20
40868;DHT22;26586;50.708;22.412;2023-08-30T14:22:14;27.50;61.20
40868;DHT22;26586;50.708;22.412;2023-08-30T14:24:40;27.60;61.20
40868;DHT22;26586;50.708;22.412;2023-08-30T14:27:09;27.60;61.00
40868;DHT22;26586;50.708;22.412;2023-08-30T14:29:35;27.60;61.00
40868;DHT22;26586;50.708;22.412;2023-08-30T14:32:01;27.60;60.90
40868;DHT22;26586;50.708;22.412;2023-08-30T14:34:28;27.60;60.80
40868;DHT22;26586;50.708;22.412;2023-08-30T14:36:55;27.60;60.80
40868;DHT22;26586;50.708;22.412;2023-08-30T14:39:21;27.60;60.80
40868;DHT22;26586;50.708;22.412;2023-08-30T14:41:47;27.60;60.60
40868;DHT22;26586;50.708;22.412;2023-08-30T14:44:13;27.60;60.60
40868;DHT22;26586;50.708;22.412;2023-08-30T14:46:42;27.60;60.40
40868;DHT22;26586;50.708;22.412;2023-08-30T14:49:08;27.60;60.40
40868;DHT22;26586;50.708;22.412;2023-08-30T14:51:36;27.70;60.30
40868;DHT22;26586;50.708;22.412;2023-08-30T14:54:06;27.60;60.20
40868;DHT22;26586;50.708;22.412;2023-08-30T14:56:33;27.60;60.20
40868;DHT22;26586;50.708;22.412;2023-08-30T14:58:59;27.60;60.00
40868;DHT22;26586;50.708;22.412;2023-08-30T15:01:31;27.60;60.00
40868;DHT22;26586;50.708;22.412;2023-08-30T15:03:57;27.60;60.00
40868;DHT22;26586;50.708;22.412;2023-08-30T15:06:24;27.60;60.00
40868;DHT22;26586;50.708;22.412;2023-08-30T15:08:50;27.60;59.90
40868;DHT22;26586;50.708;22.412;2023-08-30T15:11:16;27.60;59.70
40868;DHT22;26586;50.708;22.412;2023-08-30T15:13:45;27.60;59.80
40868;DHT22;26586;50.708;22.412;2023-08-30T15:16:12;27.60;59.90
40868;DHT22;26586;50.708;22.412;2023-08-30T15:18:41;27.60;59.90
40868;DHT22;26586;50.708;22.412;2023-08-30T15:21:07;27.60;59.90
40868;DHT22;26586;50.708;22.412;2023-08-30T15:23:33;27.60;59.90